sensor_id;sensor_type;location;lat;lon;timestamp;pressure;altitude;pressure_sealevel;temperature;humidity
50368;BME280;36281;34.132;-118.018;2023-02-02T00:02:21;100545.66;;;19.93;16.81
50368;BME280;36281;34.132;-118.018;2023-02-02T00:04:49;100539.44;;;19.87;16.29
50368;BME280;36281;34.132;-118.018;2023-02-02T00:07:17;100537.25;;;19.84;16.34
50368;BME280;36281;34.132;-118.018;2023-02-02T00:09:46;100545.25;;;19.79;16.71
50368;BME280;36281;34.132;-118.018;2023-02-02T00:12:14;100543.66;;;19.78;17.38
50368;BME280;36281;34.132;-118.018;2023-02-02T00:14:42;100546.56;;;19.71;17.04
50368;BME280;36281;34.132;-118.018;2023-02-02T00:17:10;100546.50;;;19.66;18.85
50368;BME280;36281;34.132;-118.018;2023-02-02T00:19:40;100553.72;;;19.60;19.51
50368;BME280;36281;34.132;-118.018;2023-02-02T00:22:09;100561.69;;;19.55;20.12
50368;BME280;36281;34.132;-118.018;2023-02-02T00:24:37;100562.47;;;19.51;20.69
50368;BME280;36281;34.132;-118.018;2023-02-02T00:27:05;100567.47;;;19.42;20.45
50368;BME280;36281;34.132;-118.018;2023-02-02T00:29:33;100563.91;;;19.36;20.62
50368;BME280;36281;34.132;-118.018;2023-02-02T00:32:01;100566.00;;;19.29;21.12
50368;BME280;36281;34.132;-118.018;2023-02-02T00:34:30;100561.88;;;19.22;21.58
50368;BME280;36281;34.132;-118.018;2023-02-02T00:37:00;100571.19;;;19.14;20.97
50368;BME280;36281;34.132;-118.018;2023-02-02T00:39:28;100572.19;;;19.08;22.29
50368;BME280;36281;34.132;-118.018;2023-02-02T00:41:56;100574.25;;;19.01;21.91
50368;BME280;36281;34.132;-118.018;2023-02-02T00:44:24;100573.88;;;18.92;22.21
50368;BME280;36281;34.132;-118.018;2023-02-02T00:47:11;100578.84;;;18.83;22.09
50368;BME280;36281;34.132;-118.018;2023-02-02T00:49:39;100580.13;;;18.76;22.00
50368;BME280;36281;34.132;-118.018;2023-02-02T00:52:09;100582.38;;;18.67;21.88
50368;BME280;36281;34.132;-118.018;2023-02-02T00:54:37;100583.38;;;18.61;21.62
50368;BME280;36281;34.132;-118.018;2023-02-02T00:57:06;100582.50;;;18.55;22.62
50368;BME280;36281;34.132;-118.018;2023-02-02T00:59:34;100590.94;;;18.47;23.45
50368;BME280;36281;34.132;-118.018;2023-02-02T01:02:02;100586.50;;;18.36;23.42
50368;BME280;36281;34.132;-118.018;2023-02-02T01:04:30;100589.84;;;18.26;24.07
50368;BME280;36281;34.132;-118.018;2023-02-02T01:06:59;100592.09;;;18.18;25.10
50368;BME280;36281;34.132;-118.018;2023-02-02T01:09:28;100597.78;;;18.04;24.49
50368;BME280;36281;34.132;-118.018;2023-02-02T01:11:57;100591.22;;;17.95;24.97
50368;BME280;36281;34.132;-118.018;2023-02-02T01:14:25;100601.75;;;17.85;26.27
50368;BME280;36281;34.132;-118.018;2023-02-02T01:16:53;100600.41;;;17.71;27.10
50368;BME280;36281;34.132;-118.018;2023-02-02T01:19:22;100601.16;;;17.54;28.12
50368;BME280;36281;34.132;-118.018;2023-02-02T01:21:50;100610.06;;;17.43;28.05
50368;BME280;36281;34.132;-118.018;2023-02-02T01:24:18;100615.13;;;17.28;29.24
50368;BME280;36281;34.132;-118.018;2023-02-02T01:26:48;100615.16;;;17.16;29.52
50368;BME280;36281;34.132;-118.018;2023-02-02T01:29:16;100615.31;;;16.98;30.45
50368;BME280;36281;34.132;-118.018;2023-02-02T01:31:45;100622.41;;;16.80;31.26
50368;BME280;36281;34.132;-118.018;2023-02-02T01:34:13;100623.91;;;16.65;31.11
50368;BME280;36281;34.132;-118.018;2023-02-02T01:36:41;100631.00;;;16.47;30.61
50368;BME280;36281;34.132;-118.018;2023-02-02T01:39:10;100632.28;;;16.33;31.83
50368;BME280;36281;34.132;-118.018;2023-02-02T01:41:39;100631.66;;;16.19;31.36
50368;BME280;36281;34.132;-118.018;2023-02-02T01:46:52;100636.13;;;15.95;31.39
50368;BME280;36281;34.132;-118.018;2023-02-02T01:49:20;100635.88;;;15.85;31.73
50368;BME280;36281;34.132;-118.018;2023-02-02T01:51:50;100635.84;;;15.73;31.40
50368;BME280;36281;34.132;-118.018;2023-02-02T01:54:22;100636.16;;;15.65;30.56
50368;BME280;36281;34.132;-118.018;2023-02-02T01:56:52;100641.19;;;15.55;30.09
50368;BME280;36281;34.132;-118.018;2023-02-02T01:59:21;100649.00;;;15.38;32.31
50368;BME280;36281;34.132;-118.018;2023-02-02T02:01:52;100652.34;;;15.34;32.60
50368;BME280;36281;34.132;-118.018;2023-02-02T02:04:21;100658.19;;;15.24;33.35
50368;BME280;36281;34.132;-118.018;2023-02-02T02:06:51;100663.69;;;15.11;32.54
50368;BME280;36281;34.132;-118.018;2023-02-02T02:09:20;100661.53;;;15.01;32.75
50368;BME280;36281;34.132;-118.018;2023-02-02T02:11:48;100667.81;;;14.88;34.14
50368;BME280;36281;34.132;-118.018;2023-02-02T02:14:16;100672.03;;;14.78;33.52
50368;BME280;36281;34.132;-118.018;2023-02-02T02:17:10;100674.56;;;14.66;34.26
50368;BME280;36281;34.132;-118.018;2023-02-02T02:19:51;100678.53;;;14.57;34.18
50368;BME280;36281;34.132;-118.018;2023-02-02T02:22:49;100685.78;;;14.50;34.46
50368;BME280;36281;34.132;-118.018;2023-02-02T02:25:45;100696.09;;;14.39;35.26
50368;BME280;36281;34.132;-118.018;2023-02-02T02:28:42;100688.00;;;14.28;35.38
50368;BME280;36281;34.132;-118.018;2023-02-02T02:31:21;100687.84;;;14.16;34.11
50368;BME280;36281;34.132;-118.018;2023-02-02T02:33:58;100691.19;;;14.05;34.79
50368;BME280;36281;34.132;-118.018;2023-02-02T02:36:32;100691.44;;;13.96;35.43
50368;BME280;36281;34.132;-118.018;2023-02-02T02:39:04;100689.25;;;13.87;35.04
50368;BME280;36281;34.132;-118.018;2023-02-02T02:41:34;100693.19;;;13.78;35.45
50368;BME280;36281;34.132;-118.018;2023-02-02T02:44:05;100702.47;;;13.68;36.58
50368;BME280;36281;34.132;-118.018;2023-02-02T02:46:35;100703.94;;;13.58;37.14
50368;BME280;36281;34.132;-118.018;2023-02-02T02:49:06;100707.84;;;13.49;36.91
50368;BME280;36281;34.132;-118.018;2023-02-02T02:51:40;100713.41;;;13.40;36.43
50368;BME280;36281;34.132;-118.018;2023-02-02T02:54:10;100710.34;;;13.30;36.38
50368;BME280;36281;34.132;-118.018;2023-02-02T02:56:42;100714.44;;;13.26;36.75
50368;BME280;36281;34.132;-118.018;2023-02-02T02:59:14;100725.31;;;13.18;37.47
50368;BME280;36281;34.132;-118.018;2023-02-02T03:01:48;100720.78;;;13.12;38.13
50368;BME280;36281;34.132;-118.018;2023-02-02T03:04:24;100722.66;;;13.05;38.50
50368;BME280;36281;34.132;-118.018;2023-02-02T03:06:56;100726.16;;;12.99;39.45
50368;BME280;36281;34.132;-118.018;2023-02-02T03:09:27;100729.00;;;12.90;40.04
50368;BME280;36281;34.132;-118.018;2023-02-02T03:11:59;100724.69;;;12.83;40.30
50368;BME280;36281;34.132;-118.018;2023-02-02T03:14:27;100731.06;;;12.75;40.36
50368;BME280;36281;34.132;-118.018;2023-02-02T03:16:55;100730.84;;;12.70;40.42
50368;BME280;36281;34.132;-118.018;2023-02-02T03:19:25;100730.66;;;12.65;41.09
50368;BME280;36281;34.132;-118.018;2023-02-02T03:21:54;100735.13;;;12.58;41.77
50368;BME280;36281;34.132;-118.018;2023-02-02T03:24:22;100742.28;;;12.51;41.31
50368;BME280;36281;34.132;-118.018;2023-02-02T03:26:51;100738.81;;;12.44;41.09
50368;BME280;36281;34.132;-118.018;2023-02-02T03:29:19;100736.94;;;12.37;41.26
50368;BME280;36281;34.132;-118.018;2023-02-02T03:31:47;100743.72;;;12.33;41.58
50368;BME280;36281;34.132;-118.018;2023-02-02T03:34:15;100747.97;;;12.28;42.42
50368;BME280;36281;34.132;-118.018;2023-02-02T03:36:45;100753.88;;;12.23;42.96
50368;BME280;36281;34.132;-118.018;2023-02-02T03:39:13;100748.56;;;12.16;42.18
50368;BME280;36281;34.132;-118.018;2023-02-02T03:41:42;100751.19;;;12.10;42.90
50368;BME280;36281;34.132;-118.018;2023-02-02T03:44:10;100751.59;;;12.07;43.44
50368;BME280;36281;34.132;-118.018;2023-02-02T03:46:38;100749.31;;;11.97;43.55
50368;BME280;36281;34.132;-118.018;2023-02-02T03:49:06;100759.91;;;11.90;43.33
50368;BME280;36281;34.132;-118.018;2023-02-02T03:51:35;100760.72;;;11.84;42.55
50368;BME280;36281;34.132;-118.018;2023-02-02T03:54:05;100755.31;;;11.78;43.80
50368;BME280;36281;34.132;-118.018;2023-02-02T03:56:33;100756.13;;;11.72;44.61
50368;BME280;36281;34.132;-118.018;2023-02-02T03:59:01;100759.56;;;11.65;44.75
50368;BME280;36281;34.132;-118.018;2023-02-02T04:01:30;100763.41;;;11.63;45.40
50368;BME280;36281;34.132;-118.018;2023-02-02T04:03:58;100758.69;;;11.58;45.33
50368;BME280;36281;34.132;-118.018;2023-02-02T04:06:27;100754.38;;;11.51;45.35
50368;BME280;36281;34.132;-118.018;2023-02-02T04:08:55;100756.81;;;11.46;44.91
50368;BME280;36281;34.132;-118.018;2023-02-02T04:11:25;100757.41;;;11.41;45.68
50368;BME280;36281;34.132;-118.018;2023-02-02T04:13:53;100757.38;;;11.34;46.01
50368;BME280;36281;34.132;-118.018;2023-02-02T04:16:21;100748.94;;;11.24;46.03
50368;BME280;36281;34.132;-118.018;2023-02-02T04:18:49;100754.00;;;11.19;45.74
50368;BME280;36281;34.132;-118.018;2023-02-02T04:21:18;100758.88;;;11.16;46.14
50368;BME280;36281;34.132;-118.018;2023-02-02T04:23:46;100757.41;;;11.13;46.62
50368;BME280;36281;34.132;-118.018;2023-02-02T04:26:14;100766.78;;;11.09;46.59
50368;BME280;36281;34.132;-118.018;2023-02-02T04:28:44;100771.81;;;11.04;46.54
50368;BME280;36281;34.132;-118.018;2023-02-02T04:31:12;100772.41;;;10.99;47.19
50368;BME280;36281;34.132;-118.018;2023-02-02T04:33:41;100766.22;;;10.92;46.91
50368;BME280;36281;34.132;-118.018;2023-02-02T04:36:09;100770.91;;;10.90;47.26
50368;BME280;36281;34.132;-118.018;2023-02-02T04:38:37;100774.13;;;10.85;47.90
50368;BME280;36281;34.132;-118.018;2023-02-02T04:41:06;100768.59;;;10.80;48.97
50368;BME280;36281;34.132;-118.018;2023-02-02T04:43:35;100766.72;;;10.74;48.81
50368;BME280;36281;34.132;-118.018;2023-02-02T04:46:05;100766.47;;;10.69;48.10
50368;BME280;36281;34.132;-118.018;2023-02-02T04:48:33;100769.69;;;10.65;48.67
50368;BME280;36281;34.132;-118.018;2023-02-02T04:51:03;100765.94;;;10.59;48.45
50368;BME280;36281;34.132;-118.018;2023-02-02T04:53:32;100773.44;;;10.55;48.87
50368;BME280;36281;34.132;-118.018;2023-02-02T04:56:04;100781.97;;;10.51;49.43
50368;BME280;36281;34.132;-118.018;2023-02-02T04:58:32;100785.19;;;10.46;50.34
50368;BME280;36281;34.132;-118.018;2023-02-02T05:01:02;100785.75;;;10.42;50.91
50368;BME280;36281;34.132;-118.018;2023-02-02T05:03:36;100778.34;;;10.37;50.89
50368;BME280;36281;34.132;-118.018;2023-02-02T05:06:04;100790.53;;;10.31;51.61
50368;BME280;36281;34.132;-118.018;2023-02-02T05:08:33;100781.00;;;10.22;51.08
50368;BME280;36281;34.132;-118.018;2023-02-02T05:11:05;100791.34;;;10.17;51.21
50368;BME280;36281;34.132;-118.018;2023-02-02T05:13:33;100800.50;;;10.15;51.78
50368;BME280;36281;34.132;-118.018;2023-02-02T05:16:01;100802.03;;;10.09;51.79
50368;BME280;36281;34.132;-118.018;2023-02-02T05:18:30;100805.63;;;10.01;51.83
50368;BME280;36281;34.132;-118.018;2023-02-02T05:21:00;100806.16;;;9.97;51.71
50368;BME280;36281;34.132;-118.018;2023-02-02T05:23:29;100799.78;;;9.91;52.24
50368;BME280;36281;34.132;-118.018;2023-02-02T05:25:57;100807.06;;;9.89;52.32
50368;BME280;36281;34.132;-118.018;2023-02-02T05:28:25;100805.81;;;9.85;52.47
50368;BME280;36281;34.132;-118.018;2023-02-02T05:30:54;100811.47;;;9.82;53.24
50368;BME280;36281;34.132;-118.018;2023-02-02T05:33:22;100814.03;;;9.75;53.14
50368;BME280;36281;34.132;-118.018;2023-02-02T05:35:50;100830.63;;;9.69;53.08
50368;BME280;36281;34.132;-118.018;2023-02-02T05:38:21;100829.38;;;9.65;52.77
50368;BME280;36281;34.132;-118.018;2023-02-02T05:40:49;100835.53;;;9.57;53.29
50368;BME280;36281;34.132;-118.018;2023-02-02T05:43:17;100835.28;;;9.52;52.87
50368;BME280;36281;34.132;-118.018;2023-02-02T05:45:47;100836.00;;;9.46;53.04
50368;BME280;36281;34.132;-118.018;2023-02-02T05:48:15;100837.16;;;9.44;53.58
50368;BME280;36281;34.132;-118.018;2023-02-02T05:50:43;100838.53;;;9.40;53.59
50368;BME280;36281;34.132;-118.018;2023-02-02T05:53:16;100838.91;;;9.37;53.57
50368;BME280;36281;34.132;-118.018;2023-02-02T05:55:45;100841.91;;;9.33;53.82
50368;BME280;36281;34.132;-118.018;2023-02-02T05:58:14;100840.44;;;9.31;54.02
50368;BME280;36281;34.132;-118.018;2023-02-02T06:00:42;100838.81;;;9.30;54.38
50368;BME280;36281;34.132;-118.018;2023-02-02T06:03:10;100854.66;;;9.30;54.57
50368;BME280;36281;34.132;-118.018;2023-02-02T06:05:39;100851.56;;;9.26;54.90
50368;BME280;36281;34.132;-118.018;2023-02-02T06:08:07;100851.75;;;9.25;54.84
50368;BME280;36281;34.132;-118.018;2023-02-02T06:10:37;100849.16;;;9.17;55.13
50368;BME280;36281;34.132;-118.018;2023-02-02T06:13:07;100846.03;;;9.13;54.54
50368;BME280;36281;34.132;-118.018;2023-02-02T06:15:35;100848.88;;;9.12;55.03
50368;BME280;36281;34.132;-118.018;2023-02-02T06:18:04;100853.50;;;9.10;55.41
50368;BME280;36281;34.132;-118.018;2023-02-02T06:20:35;100855.69;;;9.06;55.01
50368;BME280;36281;34.132;-118.018;2023-02-02T06:23:03;100857.66;;;9.04;55.13
50368;BME280;36281;34.132;-118.018;2023-02-02T06:25:32;100857.03;;;9.02;55.91
50368;BME280;36281;34.132;-118.018;2023-02-02T06:28:01;100861.22;;;8.96;55.97
50368;BME280;36281;34.132;-118.018;2023-02-02T06:30:30;100858.28;;;8.91;55.80
50368;BME280;36281;34.132;-118.018;2023-02-02T06:32:59;100865.44;;;8.83;56.01
50368;BME280;36281;34.132;-118.018;2023-02-02T06:35:27;100866.78;;;8.78;56.18
50368;BME280;36281;34.132;-118.018;2023-02-02T06:37:56;100872.06;;;8.78;56.07
50368;BME280;36281;34.132;-118.018;2023-02-02T06:40:25;100869.94;;;8.74;56.01
50368;BME280;36281;34.132;-118.018;2023-02-02T06:42:56;100875.41;;;8.72;55.67
50368;BME280;36281;34.132;-118.018;2023-02-02T06:45:24;100882.69;;;8.70;55.99
50368;BME280;36281;34.132;-118.018;2023-02-02T06:47:56;100878.75;;;8.66;56.60
50368;BME280;36281;34.132;-118.018;2023-02-02T06:50:25;100870.53;;;8.61;56.46
50368;BME280;36281;34.132;-118.018;2023-02-02T06:52:53;100873.31;;;8.60;56.98
50368;BME280;36281;34.132;-118.018;2023-02-02T06:55:21;100868.84;;;8.60;56.61
50368;BME280;36281;34.132;-118.018;2023-02-02T06:57:54;100880.44;;;8.59;56.45
50368;BME280;36281;34.132;-118.018;2023-02-02T07:00:23;100873.22;;;8.53;56.58
50368;BME280;36281;34.132;-118.018;2023-02-02T07:02:51;100878.00;;;8.49;56.55
50368;BME280;36281;34.132;-118.018;2023-02-02T07:05:21;100876.19;;;8.50;56.54
50368;BME280;36281;34.132;-118.018;2023-02-02T07:07:55;100878.00;;;8.49;57.06
50368;BME280;36281;34.132;-118.018;2023-02-02T07:10:24;100877.53;;;8.46;56.43
50368;BME280;36281;34.132;-118.018;2023-02-02T07:13:12;100879.53;;;8.44;56.45
50368;BME280;36281;34.132;-118.018;2023-02-02T07:15:41;100877.88;;;8.43;56.81
50368;BME280;36281;34.132;-118.018;2023-02-02T07:18:09;100880.84;;;8.40;57.18
50368;BME280;36281;34.132;-118.018;2023-02-02T07:20:39;100878.56;;;8.37;56.88
50368;BME280;36281;34.132;-118.018;2023-02-02T07:23:07;100878.25;;;8.32;57.15
50368;BME280;36281;34.132;-118.018;2023-02-02T07:25:35;100873.28;;;8.28;56.94
50368;BME280;36281;34.132;-118.018;2023-02-02T07:28:04;100866.59;;;8.18;57.00
50368;BME280;36281;34.132;-118.018;2023-02-02T07:30:32;100876.97;;;8.19;57.61
50368;BME280;36281;34.132;-118.018;2023-02-02T07:33:00;100878.13;;;8.17;57.61
50368;BME280;36281;34.132;-118.018;2023-02-02T07:35:28;100877.97;;;8.10;57.20
50368;BME280;36281;34.132;-118.018;2023-02-02T07:37:58;100881.63;;;8.09;57.78
50368;BME280;36281;34.132;-118.018;2023-02-02T07:40:27;100873.25;;;8.06;57.85
50368;BME280;36281;34.132;-118.018;2023-02-02T07:42:55;100889.41;;;8.02;57.80
50368;BME280;36281;34.132;-118.018;2023-02-02T07:45:27;100888.09;;;7.98;58.14
50368;BME280;36281;34.132;-118.018;2023-02-02T07:47:55;100881.84;;;7.91;57.80
50368;BME280;36281;34.132;-118.018;2023-02-02T07:50:24;100878.53;;;7.89;58.29
50368;BME280;36281;34.132;-118.018;2023-02-02T07:52:52;100872.28;;;7.90;57.93
50368;BME280;36281;34.132;-118.018;2023-02-02T07:55:22;100879.53;;;7.88;58.10
50368;BME280;36281;34.132;-118.018;2023-02-02T07:57:50;100884.31;;;7.85;58.32
50368;BME280;36281;34.132;-118.018;2023-02-02T08:00:19;100892.41;;;7.83;58.50
50368;BME280;36281;34.132;-118.018;2023-02-02T08:02:47;100887.66;;;7.78;58.46
50368;BME280;36281;34.132;-118.018;2023-02-02T08:05:16;100890.28;;;7.78;58.44
50368;BME280;36281;34.132;-118.018;2023-02-02T08:07:44;100898.50;;;7.75;58.17
50368;BME280;36281;34.132;-118.018;2023-02-02T08:10:12;100898.06;;;7.72;58.40
50368;BME280;36281;34.132;-118.018;2023-02-02T08:12:42;100900.19;;;7.68;59.20
50368;BME280;36281;34.132;-118.018;2023-02-02T08:15:11;100905.78;;;7.65;58.79
50368;BME280;36281;34.132;-118.018;2023-02-02T08:17:39;100906.97;;;7.63;58.42
50368;BME280;36281;34.132;-118.018;2023-02-02T08:20:11;100902.69;;;7.62;58.77
50368;BME280;36281;34.132;-118.018;2023-02-02T08:22:40;100899.53;;;7.58;59.00
50368;BME280;36281;34.132;-118.018;2023-02-02T08:25:08;100908.78;;;7.54;59.62
50368;BME280;36281;34.132;-118.018;2023-02-02T08:27:37;100894.13;;;7.51;59.49
50368;BME280;36281;34.132;-118.018;2023-02-02T08:30:07;100905.00;;;7.48;59.48
50368;BME280;36281;34.132;-118.018;2023-02-02T08:32:36;100907.81;;;7.47;59.60
50368;BME280;36281;34.132;-118.018;2023-02-02T08:35:04;100904.50;;;7.45;59.30
50368;BME280;36281;34.132;-118.018;2023-02-02T08:37:33;100896.25;;;7.40;59.92
50368;BME280;36281;34.132;-118.018;2023-02-02T08:40:01;100902.22;;;7.42;60.13
50368;BME280;36281;34.132;-118.018;2023-02-02T08:42:29;100897.25;;;7.39;60.15
50368;BME280;36281;34.132;-118.018;2023-02-02T08:44:57;100895.63;;;7.38;60.01
50368;BME280;36281;34.132;-118.018;2023-02-02T08:47:47;100897.09;;;7.32;59.75
50368;BME280;36281;34.132;-118.018;2023-02-02T08:50:27;100896.78;;;7.27;59.61
50368;BME280;36281;34.132;-118.018;2023-02-02T08:52:55;100897.91;;;7.24;59.97
50368;BME280;36281;34.132;-118.018;2023-02-02T08:55:24;100893.94;;;7.20;60.20
50368;BME280;36281;34.132;-118.018;2023-02-02T08:57:52;100891.31;;;7.20;60.33
50368;BME280;36281;34.132;-118.018;2023-02-02T09:00:21;100891.66;;;7.17;59.62
50368;BME280;36281;34.132;-118.018;2023-02-02T09:02:51;100885.06;;;7.13;59.32
50368;BME280;36281;34.132;-118.018;2023-02-02T09:05:19;100888.69;;;7.12;60.06
50368;BME280;36281;34.132;-118.018;2023-02-02T09:07:47;100892.31;;;7.11;60.03
50368;BME280;36281;34.132;-118.018;2023-02-02T09:10:16;100892.66;;;7.08;61.00
50368;BME280;36281;34.132;-118.018;2023-02-02T09:12:44;100894.78;;;7.05;60.42
50368;BME280;36281;34.132;-118.018;2023-02-02T09:15:12;100893.31;;;7.02;60.37
50368;BME280;36281;34.132;-118.018;2023-02-02T09:17:40;100897.91;;;7.00;59.97
50368;BME280;36281;34.132;-118.018;2023-02-02T09:20:11;100898.56;;;7.02;60.95
50368;BME280;36281;34.132;-118.018;2023-02-02T09:22:39;100901.53;;;6.99;60.90
50368;BME280;36281;34.132;-118.018;2023-02-02T09:25:07;100904.31;;;6.97;60.94
50368;BME280;36281;34.132;-118.018;2023-02-02T09:27:36;100903.81;;;6.94;60.81
50368;BME280;36281;34.132;-118.018;2023-02-02T09:30:04;100912.03;;;6.91;60.66
50368;BME280;36281;34.132;-118.018;2023-02-02T09:32:33;100911.56;;;6.87;60.76
50368;BME280;36281;34.132;-118.018;2023-02-02T09:35:01;100905.78;;;6.84;60.51
50368;BME280;36281;34.132;-118.018;2023-02-02T09:37:31;100905.13;;;6.82;61.01
50368;BME280;36281;34.132;-118.018;2023-02-02T09:40:00;100904.28;;;6.81;60.80
50368;BME280;36281;34.132;-118.018;2023-02-02T09:42:35;100908.91;;;6.79;61.01
50368;BME280;36281;34.132;-118.018;2023-02-02T09:45:07;100912.00;;;6.74;61.11
50368;BME280;36281;34.132;-118.018;2023-02-02T09:47:53;100916.75;;;6.71;61.26
50368;BME280;36281;34.132;-118.018;2023-02-02T09:50:33;100920.38;;;6.70;60.95
50368;BME280;36281;34.132;-118.018;2023-02-02T09:53:07;100926.13;;;6.65;61.61
50368;BME280;36281;34.132;-118.018;2023-02-02T09:55:38;100929.09;;;6.62;61.72
50368;BME280;36281;34.132;-118.018;2023-02-02T09:58:10;100916.56;;;6.56;61.21
50368;BME280;36281;34.132;-118.018;2023-02-02T10:00:41;100920.50;;;6.52;61.31
50368;BME280;36281;34.132;-118.018;2023-02-02T10:03:12;100924.97;;;6.52;62.21
50368;BME280;36281;34.132;-118.018;2023-02-02T10:05:43;100927.72;;;6.50;62.05
50368;BME280;36281;34.132;-118.018;2023-02-02T10:08:16;100935.78;;;6.48;62.42
50368;BME280;36281;34.132;-118.018;2023-02-02T10:10:59;100935.59;;;6.42;61.52
50368;BME280;36281;34.132;-118.018;2023-02-02T10:13:32;100940.53;;;6.37;62.63
50368;BME280;36281;34.132;-118.018;2023-02-02T10:16:05;100944.09;;;6.36;62.54
50368;BME280;36281;34.132;-118.018;2023-02-02T10:18:36;100960.72;;;6.36;62.62
50368;BME280;36281;34.132;-118.018;2023-02-02T10:21:09;100956.59;;;6.34;62.97
50368;BME280;36281;34.132;-118.018;2023-02-02T10:23:40;100948.38;;;6.29;63.46
50368;BME280;36281;34.132;-118.018;2023-02-02T10:26:13;100950.34;;;6.27;62.81
50368;BME280;36281;34.132;-118.018;2023-02-02T10:28:46;100952.28;;;6.25;62.55
50368;BME280;36281;34.132;-118.018;2023-02-02T10:31:23;100944.03;;;6.19;62.25
50368;BME280;36281;34.132;-118.018;2023-02-02T10:33:59;100944.34;;;6.16;63.18
50368;BME280;36281;34.132;-118.018;2023-02-02T10:36:31;100950.59;;;6.15;62.37
50368;BME280;36281;34.132;-118.018;2023-02-02T10:39:07;100960.13;;;6.16;62.59
50368;BME280;36281;34.132;-118.018;2023-02-02T10:41:39;100949.59;;;6.16;61.88
50368;BME280;36281;34.132;-118.018;2023-02-02T10:44:12;100943.53;;;6.16;62.07
50368;BME280;36281;34.132;-118.018;2023-02-02T10:46:45;100932.19;;;6.15;61.70
50368;BME280;36281;34.132;-118.018;2023-02-02T10:49:17;100937.44;;;6.15;62.22
50368;BME280;36281;34.132;-118.018;2023-02-02T10:51:49;100940.22;;;6.14;61.25
50368;BME280;36281;34.132;-118.018;2023-02-02T10:54:24;100942.69;;;6.15;61.39
50368;BME280;36281;34.132;-118.018;2023-02-02T10:56:56;100942.69;;;6.15;60.86
50368;BME280;36281;34.132;-118.018;2023-02-02T10:59:26;100938.25;;;6.16;60.41
50368;BME280;36281;34.132;-118.018;2023-02-02T11:01:57;100935.78;;;6.14;60.39
50368;BME280;36281;34.132;-118.018;2023-02-02T11:04:37;100939.41;;;6.13;60.46
50368;BME280;36281;34.132;-118.018;2023-02-02T11:07:24;100939.56;;;6.12;60.04
50368;BME280;36281;34.132;-118.018;2023-02-02T11:09:54;100942.22;;;6.12;60.32
50368;BME280;36281;34.132;-118.018;2023-02-02T11:12:24;100951.88;;;6.11;59.92
50368;BME280;36281;34.132;-118.018;2023-02-02T11:14:54;100942.22;;;6.12;60.24
50368;BME280;36281;34.132;-118.018;2023-02-02T11:17:24;100944.16;;;6.10;60.76
50368;BME280;36281;34.132;-118.018;2023-02-02T11:19:52;100946.94;;;6.08;60.78
50368;BME280;36281;34.132;-118.018;2023-02-02T11:22:24;100953.31;;;6.06;60.52
50368;BME280;36281;34.132;-118.018;2023-02-02T11:24:54;100956.13;;;6.04;60.37
50368;BME280;36281;34.132;-118.018;2023-02-02T11:27:23;100948.22;;;6.04;59.88
50368;BME280;36281;34.132;-118.018;2023-02-02T11:29:53;100951.16;;;6.01;60.07
50368;BME280;36281;34.132;-118.018;2023-02-02T11:32:26;100940.81;;;6.00;59.39
50368;BME280;36281;34.132;-118.018;2023-02-02T11:35:14;100940.44;;;5.94;60.67
50368;BME280;36281;34.132;-118.018;2023-02-02T11:37:56;100936.34;;;5.92;60.02
50368;BME280;36281;34.132;-118.018;2023-02-02T11:40:30;100931.34;;;5.89;59.70
50368;BME280;36281;34.132;-118.018;2023-02-02T11:43:00;100930.69;;;5.87;60.42
50368;BME280;36281;34.132;-118.018;2023-02-02T11:45:31;100926.84;;;5.81;60.65
50368;BME280;36281;34.132;-118.018;2023-02-02T11:48:04;100928.66;;;5.81;60.37
50368;BME280;36281;34.132;-118.018;2023-02-02T11:50:34;100928.16;;;5.77;61.30
50368;BME280;36281;34.132;-118.018;2023-02-02T11:53:02;100929.94;;;5.77;61.02
50368;BME280;36281;34.132;-118.018;2023-02-02T11:55:32;100932.06;;;5.73;61.32
50368;BME280;36281;34.132;-118.018;2023-02-02T11:58:18;100935.81;;;5.70;61.29
50368;BME280;36281;34.132;-118.018;2023-02-02T12:00:46;100942.88;;;5.70;61.46
50368;BME280;36281;34.132;-118.018;2023-02-02T12:03:25;100943.34;;;5.65;61.67
50368;BME280;36281;34.132;-118.018;2023-02-02T12:05:53;100949.56;;;5.64;61.57
50368;BME280;36281;34.132;-118.018;2023-02-02T12:08:22;100945.44;;;5.62;61.69
50368;BME280;36281;34.132;-118.018;2023-02-02T12:11:01;100945.75;;;5.59;61.54
50368;BME280;36281;34.132;-118.018;2023-02-02T12:16:29;100956.06;;;5.52;61.90
50368;BME280;36281;34.132;-118.018;2023-02-02T12:19:09;100951.94;;;5.50;61.59
50368;BME280;36281;34.132;-118.018;2023-02-02T12:21:45;100953.06;;;5.47;61.82
50368;BME280;36281;34.132;-118.018;2023-02-02T12:24:28;100953.06;;;5.47;62.27
50368;BME280;36281;34.132;-118.018;2023-02-02T12:27:03;100954.19;;;5.44;62.59
50368;BME280;36281;34.132;-118.018;2023-02-02T12:29:36;100949.09;;;5.43;63.19
50368;BME280;36281;34.132;-118.018;2023-02-02T12:32:21;100952.84;;;5.40;62.47
50368;BME280;36281;34.132;-118.018;2023-02-02T12:34:55;100960.88;;;5.39;62.60
50368;BME280;36281;34.132;-118.018;2023-02-02T12:37:27;100965.59;;;5.35;62.34
50368;BME280;36281;34.132;-118.018;2023-02-02T12:40:02;100953.38;;;5.26;62.44
50368;BME280;36281;34.132;-118.018;2023-02-02T12:42:50;100956.34;;;5.31;62.95
50368;BME280;36281;34.132;-118.018;2023-02-02T12:45:26;100958.16;;;5.31;63.60
50368;BME280;36281;34.132;-118.018;2023-02-02T12:48:03;100963.19;;;5.24;63.20
50368;BME280;36281;34.132;-118.018;2023-02-02T12:50:34;100963.94;;;5.16;62.90